sensor_id;sensor_type;location;lat;lon;timestamp;P1;durP1;ratioP1;P2;durP2;ratioP2
48743;SDS011;34538;48.836;9.174;2023-04-23T00:01:11;3.92;;;1.80;;
48743;SDS011;34538;48.836;9.174;2023-04-23T00:03:42;3.33;;;1.63;;
48743;SDS011;34538;48.836;9.174;2023-04-23T00:06:10;3.80;;;1.70;;
48743;SDS011;34538;48.836;9.174;2023-04-23T00:08:37;4.35;;;1.90;;
48743;SDS011;34538;48.836;9.174;2023-04-23T00:11:05;4.10;;;2.08;;
48743;SDS011;34538;48.836;9.174;2023-04-23T00:13:34;3.58;;;1.70;;
48743;SDS011;34538;48.836;9.174;2023-04-23T00:16:01;4.55;;;1.75;;
48743;SDS011;34538;48.836;9.174;2023-04-23T00:18:28;4.22;;;1.80;;
48743;SDS011;34538;48.836;9.174;2023-04-23T00:20:57;6.78;;;2.28;;
48743;SDS011;34538;48.836;9.174;2023-04-23T00:23:23;5.43;;;2.00;;
48743;SDS011;34538;48.836;9.174;2023-04-23T00:25:50;3.50;;;1.77;;
48743;SDS011;34538;48.836;9.174;2023-04-23T00:28:17;3.22;;;1.60;;
48743;SDS011;34538;48.836;9.174;2023-04-23T00:30:45;2.65;;;1.40;;
48743;SDS011;34538;48.836;9.174;2023-04-23T00:33:12;3.45;;;1.67;;
48743;SDS011;34538;48.836;9.174;2023-04-23T00:35:38;3.88;;;1.60;;
48743;SDS011;34538;48.836;9.174;2023-04-23T00:38:07;3.85;;;1.90;;
48743;SDS011;34538;48.836;9.174;2023-04-23T00:40:34;3.55;;;1.90;;
48743;SDS011;34538;48.836;9.174;2023-04-23T00:43:01;2.30;;;1.80;;
48743;SDS011;34538;48.836;9.174;2023-04-23T00:45:28;3.70;;;1.83;;
48743;SDS011;34538;48.836;9.174;2023-04-23T00:47:55;7.20;;;1.80;;
48743;SDS011;34538;48.836;9.174;2023-04-23T00:50:23;5.85;;;1.75;;
48743;SDS011;34538;48.836;9.174;2023-04-23T00:52:51;2.75;;;1.58;;
48743;SDS011;34538;48.836;9.174;2023-04-23T00:55:19;2.08;;;1.50;;
48743;SDS011;34538;48.836;9.174;2023-04-23T00:57:46;8.52;;;1.90;;
48743;SDS011;34538;48.836;9.174;2023-04-23T01:00:13;4.03;;;1.80;;
48743;SDS011;34538;48.836;9.174;2023-04-23T01:02:42;3.10;;;2.00;;
48743;SDS011;34538;48.836;9.174;2023-04-23T01:05:09;6.90;;;2.83;;
48743;SDS011;34538;48.836;9.174;2023-04-23T01:07:37;2.65;;;1.70;;
48743;SDS011;34538;48.836;9.174;2023-04-23T01:10:04;4.53;;;1.80;;
48743;SDS011;34538;48.836;9.174;2023-04-23T01:12:33;2.13;;;1.70;;
48743;SDS011;34538;48.836;9.174;2023-04-23T01:17:32;3.65;;;1.65;;
48743;SDS011;34538;48.836;9.174;2023-04-23T01:19:59;4.05;;;1.67;;
48743;SDS011;34538;48.836;9.174;2023-04-23T01:22:27;2.80;;;1.77;;
48743;SDS011;34538;48.836;9.174;2023-04-23T01:24:54;3.97;;;1.90;;
48743;SDS011;34538;48.836;9.174;2023-04-23T01:27:21;2.80;;;1.83;;
48743;SDS011;34538;48.836;9.174;2023-04-23T01:29:49;4.47;;;2.15;;
48743;SDS011;34538;48.836;9.174;2023-04-23T01:32:16;4.22;;;1.70;;
48743;SDS011;34538;48.836;9.174;2023-04-23T01:34:45;3.97;;;1.73;;
48743;SDS011;34538;48.836;9.174;2023-04-23T01:37:14;3.10;;;1.60;;
48743;SDS011;34538;48.836;9.174;2023-04-23T01:39:43;4.22;;;1.80;;
48743;SDS011;34538;48.836;9.174;2023-04-23T01:42:10;3.65;;;1.90;;
48743;SDS011;34538;48.836;9.174;2023-04-23T01:44:37;3.25;;;1.80;;
48743;SDS011;34538;48.836;9.174;2023-04-23T01:47:04;3.67;;;1.73;;
48743;SDS011;34538;48.836;9.174;2023-04-23T01:49:31;2.80;;;1.60;;
48743;SDS011;34538;48.836;9.174;2023-04-23T01:51:58;2.55;;;1.48;;
48743;SDS011;34538;48.836;9.174;2023-04-23T01:54:25;1.80;;;1.55;;
48743;SDS011;34538;48.836;9.174;2023-04-23T01:56:53;2.60;;;1.88;;
48743;SDS011;34538;48.836;9.174;2023-04-23T01:59:21;3.15;;;2.17;;
48743;SDS011;34538;48.836;9.174;2023-04-23T02:01:48;4.20;;;2.60;;
48743;SDS011;34538;48.836;9.174;2023-04-23T02:04:15;4.20;;;2.10;;
48743;SDS011;34538;48.836;9.174;2023-04-23T02:06:44;3.03;;;1.80;;
48743;SDS011;34538;48.836;9.174;2023-04-23T02:09:13;3.50;;;1.80;;
48743;SDS011;34538;48.836;9.174;2023-04-23T02:11:39;4.30;;;1.80;;
48743;SDS011;34538;48.836;9.174;2023-04-23T02:14:08;3.90;;;2.10;;
48743;SDS011;34538;48.836;9.174;2023-04-23T02:16:35;3.47;;;1.75;;
48743;SDS011;34538;48.836;9.174;2023-04-23T02:19:02;2.95;;;1.90;;
48743;SDS011;34538;48.836;9.174;2023-04-23T02:21:29;2.90;;;1.85;;
48743;SDS011;34538;48.836;9.174;2023-04-23T02:23:56;2.17;;;1.63;;
48743;SDS011;34538;48.836;9.174;2023-04-23T02:26:23;3.53;;;2.15;;
48743;SDS011;34538;48.836;9.174;2023-04-23T02:28:50;3.45;;;1.58;;
48743;SDS011;34538;48.836;9.174;2023-04-23T02:31:18;2.60;;;1.80;;
48743;SDS011;34538;48.836;9.174;2023-04-23T02:33:45;3.60;;;1.73;;
48743;SDS011;34538;48.836;9.174;2023-04-23T02:36:12;3.50;;;1.65;;
48743;SDS011;34538;48.836;9.174;2023-04-23T02:38:40;4.95;;;2.30;;
48743;SDS011;34538;48.836;9.174;2023-04-23T02:41:09;4.03;;;1.83;;
48743;SDS011;34538;48.836;9.174;2023-04-23T02:43:35;2.40;;;1.63;;
48743;SDS011;34538;48.836;9.174;2023-04-23T02:46:03;4.00;;;2.10;;
48743;SDS011;34538;48.836;9.174;2023-04-23T02:48:35;3.20;;;2.13;;
48743;SDS011;34538;48.836;9.174;2023-04-23T02:51:03;3.67;;;1.88;;
48743;SDS011;34538;48.836;9.174;2023-04-23T02:53:30;1.92;;;1.70;;
48743;SDS011;34538;48.836;9.174;2023-04-23T02:55:57;4.05;;;2.15;;
48743;SDS011;34538;48.836;9.174;2023-04-23T02:58:25;3.97;;;2.28;;
48743;SDS011;34538;48.836;9.174;2023-04-23T03:00:54;2.97;;;2.05;;
48743;SDS011;34538;48.836;9.174;2023-04-23T03:03:21;4.30;;;2.30;;
48743;SDS011;34538;48.836;9.174;2023-04-23T03:05:52;5.13;;;2.25;;
48743;SDS011;34538;48.836;9.174;2023-04-23T03:08:20;6.78;;;2.38;;
48743;SDS011;34538;48.836;9.174;2023-04-23T03:10:47;6.38;;;2.70;;
48743;SDS011;34538;48.836;9.174;2023-04-23T03:13:14;3.42;;;2.42;;
48743;SDS011;34538;48.836;9.174;2023-04-23T03:15:41;3.35;;;2.28;;
48743;SDS011;34538;48.836;9.174;2023-04-23T03:18:08;4.57;;;2.40;;
48743;SDS011;34538;48.836;9.174;2023-04-23T03:20:36;3.75;;;2.50;;
48743;SDS011;34538;48.836;9.174;2023-04-23T03:23:04;3.75;;;2.40;;
48743;SDS011;34538;48.836;9.174;2023-04-23T03:25:31;4.72;;;2.95;;
48743;SDS011;34538;48.836;9.174;2023-04-23T03:27:58;4.75;;;2.63;;
48743;SDS011;34538;48.836;9.174;2023-04-23T03:30:27;3.90;;;2.92;;
48743;SDS011;34538;48.836;9.174;2023-04-23T03:32:55;3.38;;;2.38;;
48743;SDS011;34538;48.836;9.174;2023-04-23T03:35:22;5.45;;;2.60;;
48743;SDS011;34538;48.836;9.174;2023-04-23T03:37:51;6.03;;;2.75;;
48743;SDS011;34538;48.836;9.174;2023-04-23T03:40:20;4.82;;;2.60;;
48743;SDS011;34538;48.836;9.174;2023-04-23T03:42:50;3.75;;;2.78;;
48743;SDS011;34538;48.836;9.174;2023-04-23T03:45:23;6.75;;;2.45;;
48743;SDS011;34538;48.836;9.174;2023-04-23T03:47:50;7.78;;;2.78;;
48743;SDS011;34538;48.836;9.174;2023-04-23T03:50:17;4.72;;;2.63;;
48743;SDS011;34538;48.836;9.174;2023-04-23T03:52:53;4.15;;;2.20;;
48743;SDS011;34538;48.836;9.174;2023-04-23T03:55:41;3.78;;;2.80;;
48743;SDS011;34538;48.836;9.174;2023-04-23T03:58:08;3.17;;;2.42;;
48743;SDS011;34538;48.836;9.174;2023-04-23T04:00:42;3.22;;;1.98;;
48743;SDS011;34538;48.836;9.174;2023-04-23T04:03:09;3.85;;;2.15;;
48743;SDS011;34538;48.836;9.174;2023-04-23T04:05:35;4.20;;;2.10;;
48743;SDS011;34538;48.836;9.174;2023-04-23T04:08:02;4.03;;;2.00;;
48743;SDS011;34538;48.836;9.174;2023-04-23T04:10:30;3.00;;;1.83;;
48743;SDS011;34538;48.836;9.174;2023-04-23T04:12:58;2.28;;;1.80;;
48743;SDS011;34538;48.836;9.174;2023-04-23T04:15:25;2.53;;;1.98;;
48743;SDS011;34538;48.836;9.174;2023-04-23T04:17:52;3.25;;;1.80;;
48743;SDS011;34538;48.836;9.174;2023-04-23T04:20:19;2.47;;;1.80;;
48743;SDS011;34538;48.836;9.174;2023-04-23T04:22:46;2.17;;;1.70;;
48743;SDS011;34538;48.836;9.174;2023-04-23T04:25:13;3.75;;;1.95;;
48743;SDS011;34538;48.836;9.174;2023-04-23T04:27:40;3.13;;;1.77;;
48743;SDS011;34538;48.836;9.174;2023-04-23T04:30:09;3.03;;;1.70;;
48743;SDS011;34538;48.836;9.174;2023-04-23T04:32:37;4.43;;;2.40;;
48743;SDS011;34538;48.836;9.174;2023-04-23T04:35:04;3.47;;;2.03;;
48743;SDS011;34538;48.836;9.174;2023-04-23T04:37:33;4.43;;;1.90;;
48743;SDS011;34538;48.836;9.174;2023-04-23T04:40:00;4.43;;;2.33;;
48743;SDS011;34538;48.836;9.174;2023-04-23T04:42:27;3.92;;;1.80;;
48743;SDS011;34538;48.836;9.174;2023-04-23T04:44:54;2.90;;;1.95;;
48743;SDS011;34538;48.836;9.174;2023-04-23T04:47:23;3.55;;;1.83;;
48743;SDS011;34538;48.836;9.174;2023-04-23T04:49:51;2.85;;;1.88;;
48743;SDS011;34538;48.836;9.174;2023-04-23T04:52:21;3.17;;;1.92;;
48743;SDS011;34538;48.836;9.174;2023-04-23T04:54:48;3.90;;;1.92;;
48743;SDS011;34538;48.836;9.174;2023-04-23T04:57:15;2.70;;;2.20;;
48743;SDS011;34538;48.836;9.174;2023-04-23T04:59:41;2.75;;;2.08;;
48743;SDS011;34538;48.836;9.174;2023-04-23T05:02:08;3.13;;;1.83;;
48743;SDS011;34538;48.836;9.174;2023-04-23T05:04:36;2.97;;;1.80;;
48743;SDS011;34538;48.836;9.174;2023-04-23T05:07:03;2.70;;;2.10;;
48743;SDS011;34538;48.836;9.174;2023-04-23T05:09:30;4.60;;;1.80;;
48743;SDS011;34538;48.836;9.174;2023-04-23T05:11:57;2.72;;;1.80;;
48743;SDS011;34538;48.836;9.174;2023-04-23T05:14:24;3.92;;;2.00;;
48743;SDS011;34538;48.836;9.174;2023-04-23T05:16:51;5.50;;;2.10;;
48743;SDS011;34538;48.836;9.174;2023-04-23T05:19:18;2.63;;;2.05;;
48743;SDS011;34538;48.836;9.174;2023-04-23T05:21:46;4.78;;;2.40;;
48743;SDS011;34538;48.836;9.174;2023-04-23T05:24:13;3.40;;;2.58;;
48743;SDS011;34538;48.836;9.174;2023-04-23T05:26:40;5.80;;;2.53;;
48743;SDS011;34538;48.836;9.174;2023-04-23T05:29:06;4.00;;;2.00;;
48743;SDS011;34538;48.836;9.174;2023-04-23T05:31:33;4.20;;;2.28;;
48743;SDS011;34538;48.836;9.174;2023-04-23T05:34:00;2.47;;;1.90;;
48743;SDS011;34538;48.836;9.174;2023-04-23T05:36:27;2.70;;;1.85;;
48743;SDS011;34538;48.836;9.174;2023-04-23T05:38:55;2.55;;;1.70;;
48743;SDS011;34538;48.836;9.174;2023-04-23T05:41:22;2.33;;;1.50;;
48743;SDS011;34538;48.836;9.174;2023-04-23T05:43:49;2.00;;;1.50;;
48743;SDS011;34538;48.836;9.174;2023-04-23T05:46:15;2.50;;;1.58;;
48743;SDS011;34538;48.836;9.174;2023-04-23T05:48:43;2.45;;;1.70;;
48743;SDS011;34538;48.836;9.174;2023-04-23T05:51:10;4.90;;;1.73;;
48743;SDS011;34538;48.836;9.174;2023-04-23T05:53:38;2.75;;;1.30;;
48743;SDS011;34538;48.836;9.174;2023-04-23T05:56:06;2.90;;;1.45;;
48743;SDS011;34538;48.836;9.174;2023-04-23T05:58:33;2.58;;;1.45;;
48743;SDS011;34538;48.836;9.174;2023-04-23T06:01:00;1.45;;;1.30;;
48743;SDS011;34538;48.836;9.174;2023-04-23T06:03:27;2.20;;;1.42;;
48743;SDS011;34538;48.836;9.174;2023-04-23T06:05:53;2.78;;;1.27;;
48743;SDS011;34538;48.836;9.174;2023-04-23T06:08:20;2.75;;;1.60;;
48743;SDS011;34538;48.836;9.174;2023-04-23T06:10:47;2.65;;;1.30;;
48743;SDS011;34538;48.836;9.174;2023-04-23T06:13:16;2.75;;;1.38;;
48743;SDS011;34538;48.836;9.174;2023-04-23T06:15:43;2.70;;;1.40;;
48743;SDS011;34538;48.836;9.174;2023-04-23T06:18:09;1.30;;;1.10;;
48743;SDS011;34538;48.836;9.174;2023-04-23T06:20:36;1.50;;;0.98;;
48743;SDS011;34538;48.836;9.174;2023-04-23T06:23:03;2.05;;;1.05;;
48743;SDS011;34538;48.836;9.174;2023-04-23T06:25:30;1.55;;;1.15;;
48743;SDS011;34538;48.836;9.174;2023-04-23T06:27:57;1.50;;;1.08;;
48743;SDS011;34538;48.836;9.174;2023-04-23T06:30:29;2.17;;;1.40;;
48743;SDS011;34538;48.836;9.174;2023-04-23T06:32:57;4.18;;;1.30;;
48743;SDS011;34538;48.836;9.174;2023-04-23T06:35:24;1.98;;;1.30;;
48743;SDS011;34538;48.836;9.174;2023-04-23T06:37:51;1.58;;;1.02;;
48743;SDS011;34538;48.836;9.174;2023-04-23T06:40:18;2.35;;;1.30;;
48743;SDS011;34538;48.836;9.174;2023-04-23T06:42:45;1.48;;;0.90;;
48743;SDS011;34538;48.836;9.174;2023-04-23T06:45:17;2.88;;;0.90;;
48743;SDS011;34538;48.836;9.174;2023-04-23T06:47:45;1.27;;;0.90;;
48743;SDS011;34538;48.836;9.174;2023-04-23T06:50:13;1.48;;;1.00;;
48743;SDS011;34538;48.836;9.174;2023-04-23T06:52:40;1.00;;;0.80;;
48743;SDS011;34538;48.836;9.174;2023-04-23T06:55:08;1.27;;;0.90;;
48743;SDS011;34538;48.836;9.174;2023-04-23T06:57:35;1.48;;;0.90;;
48743;SDS011;34538;48.836;9.174;2023-04-23T07:00:02;1.42;;;0.93;;
48743;SDS011;34538;48.836;9.174;2023-04-23T07:02:35;0.80;;;0.60;;
48743;SDS011;34538;48.836;9.174;2023-04-23T07:05:07;0.90;;;0.85;;
48743;SDS011;34538;48.836;9.174;2023-04-23T07:07:35;1.90;;;0.80;;
48743;SDS011;34538;48.836;9.174;2023-04-23T07:10:03;0.65;;;0.60;;
48743;SDS011;34538;48.836;9.174;2023-04-23T07:12:31;2.53;;;0.82;;
48743;SDS011;34538;48.836;9.174;2023-04-23T07:14:58;1.00;;;0.80;;
48743;SDS011;34538;48.836;9.174;2023-04-23T07:17:24;1.00;;;0.80;;
48743;SDS011;34538;48.836;9.174;2023-04-23T07:19:51;1.20;;;0.80;;
48743;SDS011;34538;48.836;9.174;2023-04-23T07:22:19;1.75;;;0.88;;
48743;SDS011;34538;48.836;9.174;2023-04-23T07:24:46;0.90;;;0.70;;
48743;SDS011;34538;48.836;9.174;2023-04-23T07:27:13;1.90;;;1.10;;
48743;SDS011;34538;48.836;9.174;2023-04-23T07:29:40;3.17;;;1.48;;
48743;SDS011;34538;48.836;9.174;2023-04-23T07:32:07;1.15;;;0.80;;
48743;SDS011;34538;48.836;9.174;2023-04-23T07:34:34;1.52;;;0.80;;
48743;SDS011;34538;48.836;9.174;2023-04-23T07:37:01;0.70;;;0.70;;
48743;SDS011;34538;48.836;9.174;2023-04-23T07:39:29;2.53;;;0.70;;
48743;SDS011;34538;48.836;9.174;2023-04-23T07:41:57;0.85;;;0.50;;
48743;SDS011;34538;48.836;9.174;2023-04-23T07:44:24;0.90;;;0.70;;
48743;SDS011;34538;48.836;9.174;2023-04-23T07:46:51;0.95;;;0.63;;
48743;SDS011;34538;48.836;9.174;2023-04-23T07:49:17;1.23;;;0.73;;
48743;SDS011;34538;48.836;9.174;2023-04-23T07:51:44;0.57;;;0.55;;
48743;SDS011;34538;48.836;9.174;2023-04-23T07:54:11;1.38;;;0.70;;
48743;SDS011;34538;48.836;9.174;2023-04-23T07:56:39;1.05;;;0.88;;
48743;SDS011;34538;48.836;9.174;2023-04-23T07:59:06;1.95;;;0.90;;
48743;SDS011;34538;48.836;9.174;2023-04-23T08:01:34;1.63;;;0.85;;
48743;SDS011;34538;48.836;9.174;2023-04-23T08:04:00;1.58;;;0.75;;
48743;SDS011;34538;48.836;9.174;2023-04-23T08:06:27;0.95;;;0.63;;
48743;SDS011;34538;48.836;9.174;2023-04-23T08:08:55;1.45;;;0.82;;
48743;SDS011;34538;48.836;9.174;2023-04-23T08:11:22;1.80;;;0.75;;
48743;SDS011;34538;48.836;9.174;2023-04-23T08:13:50;2.08;;;0.73;;
48743;SDS011;34538;48.836;9.174;2023-04-23T08:16:17;1.05;;;0.63;;
48743;SDS011;34538;48.836;9.174;2023-04-23T08:18:44;0.80;;;0.63;;
48743;SDS011;34538;48.836;9.174;2023-04-23T08:21:10;1.98;;;0.70;;
48743;SDS011;34538;48.836;9.174;2023-04-23T08:23:38;1.33;;;0.80;;
48743;SDS011;34538;48.836;9.174;2023-04-23T08:26:05;2.95;;;0.98;;
48743;SDS011;34538;48.836;9.174;2023-04-23T08:28:32;2.22;;;1.08;;
48743;SDS011;34538;48.836;9.174;2023-04-23T08:31:00;1.38;;;0.68;;
48743;SDS011;34538;48.836;9.174;2023-04-23T08:33:27;1.55;;;0.80;;
48743;SDS011;34538;48.836;9.174;2023-04-23T08:35:54;0.90;;;0.70;;
48743;SDS011;34538;48.836;9.174;2023-04-23T08:38:21;1.25;;;0.70;;
48743;SDS011;34538;48.836;9.174;2023-04-23T08:40:48;1.05;;;0.80;;
48743;SDS011;34538;48.836;9.174;2023-04-23T08:43:19;1.67;;;0.80;;
48743;SDS011;34538;48.836;9.174;2023-04-23T08:45:47;2.42;;;0.98;;
48743;SDS011;34538;48.836;9.174;2023-04-23T08:48:15;1.50;;;0.77;;
48743;SDS011;34538;48.836;9.174;2023-04-23T08:50:43;0.95;;;0.85;;
48743;SDS011;34538;48.836;9.174;2023-04-23T08:53:12;2.33;;;1.02;;
48743;SDS011;34538;48.836;9.174;2023-04-23T08:55:43;1.70;;;1.00;;
48743;SDS011;34538;48.836;9.174;2023-04-23T08:58:11;2.90;;;0.85;;
48743;SDS011;34538;48.836;9.174;2023-04-23T09:00:38;3.03;;;0.90;;
48743;SDS011;34538;48.836;9.174;2023-04-23T09:03:05;1.17;;;0.95;;
48743;SDS011;34538;48.836;9.174;2023-04-23T09:05:34;2.35;;;1.17;;
48743;SDS011;34538;48.836;9.174;2023-04-23T09:08:02;1.35;;;1.13;;
48743;SDS011;34538;48.836;9.174;2023-04-23T09:10:29;2.00;;;0.90;;
48743;SDS011;34538;48.836;9.174;2023-04-23T09:12:56;2.03;;;1.30;;
48743;SDS011;34538;48.836;9.174;2023-04-23T09:15:23;2.20;;;1.30;;
48743;SDS011;34538;48.836;9.174;2023-04-23T09:17:49;2.63;;;1.00;;
48743;SDS011;34538;48.836;9.174;2023-04-23T09:20:16;3.38;;;1.08;;
48743;SDS011;34538;48.836;9.174;2023-04-23T09:22:45;1.27;;;1.10;;
48743;SDS011;34538;48.836;9.174;2023-04-23T09:25:14;1.98;;;0.90;;
48743;SDS011;34538;48.836;9.174;2023-04-23T09:27:42;1.75;;;1.00;;
48743;SDS011;34538;48.836;9.174;2023-04-23T09:30:10;2.65;;;0.98;;
48743;SDS011;34538;48.836;9.174;2023-04-23T09:32:38;2.58;;;1.10;;
48743;SDS011;34538;48.836;9.174;2023-04-23T09:35:07;1.15;;;0.80;;
48743;SDS011;34538;48.836;9.174;2023-04-23T09:37:35;3.45;;;1.05;;
48743;SDS011;34538;48.836;9.174;2023-04-23T09:40:04;1.75;;;0.93;;
48743;SDS011;34538;48.836;9.174;2023-04-23T09:42:32;1.80;;;0.80;;
48743;SDS011;34538;48.836;9.174;2023-04-23T09:45:01;1.23;;;1.00;;
48743;SDS011;34538;48.836;9.174;2023-04-23T09:47:30;0.75;;;0.70;;
48743;SDS011;34538;48.836;9.174;2023-04-23T09:49:59;2.28;;;1.35;;
48743;SDS011;34538;48.836;9.174;2023-04-23T09:52:26;2.35;;;1.10;;
48743;SDS011;34538;48.836;9.174;2023-04-23T09:54:55;3.72;;;1.33;;
48743;SDS011;34538;48.836;9.174;2023-04-23T09:57:24;1.65;;;0.90;;
48743;SDS011;34538;48.836;9.174;2023-04-23T09:59:51;1.83;;;0.90;;
48743;SDS011;34538;48.836;9.174;2023-04-23T10:02:25;2.03;;;1.10;;
48743;SDS011;34538;48.836;9.174;2023-04-23T10:04:52;0.95;;;0.88;;
48743;SDS011;34538;48.836;9.174;2023-04-23T10:07:20;3.08;;;1.20;;
48743;SDS011;34538;48.836;9.174;2023-04-23T10:09:49;2.22;;;1.00;;
48743;SDS011;34538;48.836;9.174;2023-04-23T10:12:16;1.20;;;1.00;;
48743;SDS011;34538;48.836;9.174;2023-04-23T10:14:46;1.30;;;0.82;;
48743;SDS011;34538;48.836;9.174;2023-04-23T10:17:17;1.05;;;0.82;;
48743;SDS011;34538;48.836;9.174;2023-04-23T10:19:44;4.70;;;1.58;;
48743;SDS011;34538;48.836;9.174;2023-04-23T10:22:12;1.70;;;1.00;;
48743;SDS011;34538;48.836;9.174;2023-04-23T10:24:41;1.70;;;1.10;;
48743;SDS011;34538;48.836;9.174;2023-04-23T10:27:12;1.52;;;0.65;;
48743;SDS011;34538;48.836;9.174;2023-04-23T10:29:40;0.90;;;0.77;;
48743;SDS011;34538;48.836;9.174;2023-04-23T10:32:08;1.55;;;0.80;;
48743;SDS011;34538;48.836;9.174;2023-04-23T10:34:36;1.13;;;0.70;;
48743;SDS011;34538;48.836;9.174;2023-04-23T10:37:05;1.20;;;0.98;;
48743;SDS011;34538;48.836;9.174;2023-04-23T10:39:33;1.20;;;0.70;;
48743;SDS011;34538;48.836;9.174;2023-04-23T10:42:01;1.50;;;0.88;;
48743;SDS011;34538;48.836;9.174;2023-04-23T10:44:32;1.23;;;0.68;;
48743;SDS011;34538;48.836;9.174;2023-04-23T10:47:01;1.15;;;0.70;;
48743;SDS011;34538;48.836;9.174;2023-04-23T10:49:30;1.05;;;0.70;;
48743;SDS011;34538;48.836;9.174;2023-04-23T10:51:58;0.85;;;0.70;;
48743;SDS011;34538;48.836;9.174;2023-04-23T10:54:29;1.88;;;0.50;;
48743;SDS011;34538;48.836;9.174;2023-04-23T10:56:58;0.90;;;0.80;;
48743;SDS011;34538;48.836;9.174;2023-04-23T10:59:27;2.58;;;0.98;;
48743;SDS011;34538;48.836;9.174;2023-04-23T11:01:55;1.52;;;0.77;;
48743;SDS011;34538;48.836;9.174;2023-04-23T11:04:26;0.77;;;0.50;;
48743;SDS011;34538;48.836;9.174;2023-04-23T11:06:56;1.15;;;0.70;;
48743;SDS011;34538;48.836;9.174;2023-04-23T11:09:39;2.88;;;0.77;;
48743;SDS011;34538;48.836;9.174;2023-04-23T11:12:07;1.00;;;0.60;;
48743;SDS011;34538;48.836;9.174;2023-04-23T11:14:40;0.77;;;0.70;;
48743;SDS011;34538;48.836;9.174;2023-04-23T11:17:10;1.10;;;0.68;;
48743;SDS011;34538;48.836;9.174;2023-04-23T11:19:38;0.88;;;0.60;;
48743;SDS011;34538;48.836;9.174;2023-04-23T11:22:11;1.27;;;0.75;;
48743;SDS011;34538;48.836;9.174;2023-04-23T11:24:41;1.00;;;0.70;;
48743;SDS011;34538;48.836;9.174;2023-04-23T11:27:10;0.57;;;0.57;;
48743;SDS011;34538;48.836;9.174;2023-04-23T11:29:38;0.95;;;0.70;;
48743;SDS011;34538;48.836;9.174;2023-04-23T11:32:06;1.85;;;0.80;;
48743;SDS011;34538;48.836;9.174;2023-04-23T11:34:37;0.68;;;0.60;;
48743;SDS011;34538;48.836;9.174;2023-04-23T11:37:08;2.50;;;0.70;;
48743;SDS011;34538;48.836;9.174;2023-04-23T11:39:35;1.10;;;0.68;;
48743;SDS011;34538;48.836;9.174;2023-04-23T11:42:02;3.75;;;0.68;;
48743;SDS011;34538;48.836;9.174;2023-04-23T11:44:30;1.50;;;0.60;;
48743;SDS011;34538;48.836;9.174;2023-04-23T11:46:58;1.13;;;0.70;;
48743;SDS011;34538;48.836;9.174;2023-04-23T11:49:26;0.70;;;0.60;;
48743;SDS011;34538;48.836;9.174;2023-04-23T11:51:53;1.80;;;0.63;;
48743;SDS011;34538;48.836;9.174;2023-04-23T11:54:26;1.48;;;0.50;;
48743;SDS011;34538;48.836;9.174;2023-04-23T11:56:53;2.03;;;0.85;;
48743;SDS011;34538;48.836;9.174;2023-04-23T11:59:22;0.65;;;0.50;;
48743;SDS011;34538;48.836;9.174;2023-04-23T12:01:50;1.55;;;0.70;;
48743;SDS011;34538;48.836;9.174;2023-04-23T12:04:18;0.85;;;0.70;;
48743;SDS011;34538;48.836;9.174;2023-04-23T12:06:47;0.40;;;0.38;;
48743;SDS011;34538;48.836;9.174;2023-04-23T12:09:16;1.45;;;0.70;;
48743;SDS011;34538;48.836;9.174;2023-04-23T12:11:46;1.20;;;0.63;;
48743;SDS011;34538;48.836;9.174;2023-04-23T12:14:15;0.93;;;0.55;;
48743;SDS011;34538;48.836;9.174;2023-04-23T12:16:45;1.00;;;0.60;;
48743;SDS011;34538;48.836;9.174;2023-04-23T12:19:16;0.45;;;0.45;;
48743;SDS011;34538;48.836;9.174;2023-04-23T12:21:47;0.70;;;0.70;;
48743;SDS011;34538;48.836;9.174;2023-04-23T12:24:15;1.15;;;0.50;;
48743;SDS011;34538;48.836;9.174;2023-04-23T12:26:42;0.60;;;0.60;;
48743;SDS011;34538;48.836;9.174;2023-04-23T12:29:12;1.33;;;0.77;;
48743;SDS011;34538;48.836;9.174;2023-04-23T12:31:40;1.63;;;0.65;;
48743;SDS011;34538;48.836;9.174;2023-04-23T12:34:09;0.88;;;0.70;;
48743;SDS011;34538;48.836;9.174;2023-04-23T12:36:37;1.35;;;0.77;;
48743;SDS011;34538;48.836;9.174;2023-04-23T12:39:21;0.50;;;0.40;;
48743;SDS011;34538;48.836;9.174;2023-04-23T12:41:50;0.80;;;0.50;;
48743;SDS011;34538;48.836;9.174;2023-04-23T12:44:18;1.65;;;0.70;;
48743;SDS011;34538;48.836;9.174;2023-04-23T12:46:48;2.13;;;0.65;;
48743;SDS011;34538;48.836;9.174;2023-04-23T12:49:16;3.55;;;0.93;;
48743;SDS011;34538;48.836;9.174;2023-04-23T12:51:43;2.45;;;0.70;;
48743;SDS011;34538;48.836;9.174;2023-04-23T12:54:10;1.48;;;0.90;;
48743;SDS011;34538;48.836;9.174;2023-04-23T12:56:37;0.57;;;0.52;;
48743;SDS011;34538;48.836;9.174;2023-04-23T12:59:04;1.38;;;0.57;;
48743;SDS011;34538;48.836;9.174;2023-04-23T13:01:33;1.90;;;0.70;;
48743;SDS011;34538;48.836;9.174;2023-04-23T13:04:00;1.55;;;0.60;;
48743;SDS011;34538;48.836;9.174;2023-04-23T13:06:27;3.10;;;0.60;;
48743;SDS011;34538;48.836;9.174;2023-04-23T13:08:54;0.90;;;0.70;;
48743;SDS011;34538;48.836;9.174;2023-04-23T13:11:21;1.48;;;0.85;;
48743;SDS011;34538;48.836;9.174;2023-04-23T13:13:48;0.90;;;0.77;;
48743;SDS011;34538;48.836;9.174;2023-04-23T13:16:16;1.58;;;1.00;;
48743;SDS011;34538;48.836;9.174;2023-04-23T13:18:44;1.05;;;0.57;;
48743;SDS011;34538;48.836;9.174;2023-04-23T13:21:11;1.67;;;0.70;;
48743;SDS011;34538;48.836;9.174;2023-04-23T13:23:38;0.70;;;0.63;;
48743;SDS011;34538;48.836;9.174;2023-04-23T13:26:05;1.08;;;0.77;;
48743;SDS011;34538;48.836;9.174;2023-04-23T13:28:32;1.35;;;0.73;;
48743;SDS011;34538;48.836;9.174;2023-04-23T13:30:59;1.10;;;0.70;;
48743;SDS011;34538;48.836;9.174;2023-04-23T13:33:26;0.85;;;0.60;;
48743;SDS011;34538;48.836;9.174;2023-04-23T13:35:54;1.50;;;0.80;;
48743;SDS011;34538;48.836;9.174;2023-04-23T13:38:23;1.42;;;0.50;;
48743;SDS011;34538;48.836;9.174;2023-04-23T13:40:50;1.83;;;0.90;;
48743;SDS011;34538;48.836;9.174;2023-04-23T13:43:17;0.80;;;0.80;;
48743;SDS011;34538;48.836;9.174;2023-04-23T13:45:44;3.13;;;0.85;;
48743;SDS011;34538;48.836;9.174;2023-04-23T13:48:11;1.00;;;0.50;;
48743;SDS011;34538;48.836;9.174;2023-04-23T13:50:38;1.25;;;0.70;;
48743;SDS011;34538;48.836;9.174;2023-04-23T13:53:07;2.35;;;0.65;;
48743;SDS011;34538;48.836;9.174;2023-04-23T13:55:34;1.40;;;0.80;;
48743;SDS011;34538;48.836;9.174;2023-04-23T13:58:02;0.85;;;0.50;;
48743;SDS011;34538;48.836;9.174;2023-04-23T14:00:29;1.60;;;0.70;;
48743;SDS011;34538;48.836;9.174;2023-04-23T14:02:55;0.82;;;0.60;;
48743;SDS011;34538;48.836;9.174;2023-04-23T14:05:22;1.90;;;1.02;;
48743;SDS011;34538;48.836;9.174;2023-04-23T14:07:49;1.50;;;0.50;;
48743;SDS011;34538;48.836;9.174;2023-04-23T14:10:17;1.15;;;0.65;;
48743;SDS011;34538;48.836;9.174;2023-04-23T14:12:44;1.33;;;0.70;;
48743;SDS011;34538;48.836;9.174;2023-04-23T14:15:12;1.50;;;0.73;;
48743;SDS011;34538;48.836;9.174;2023-04-23T14:17:39;2.58;;;0.50;;
48743;SDS011;34538;48.836;9.174;2023-04-23T14:20:07;1.35;;;0.57;;
48743;SDS011;34538;48.836;9.174;2023-04-23T14:22:34;0.75;;;0.50;;
48743;SDS011;34538;48.836;9.174;2023-04-23T14:25:02;1.58;;;0.85;;
48743;SDS011;34538;48.836;9.174;2023-04-23T14:27:37;0.43;;;0.40;;
48743;SDS011;34538;48.836;9.174;2023-04-23T14:30:13;1.67;;;0.40;;
48743;SDS011;34538;48.836;9.174;2023-04-23T14:32:41;1.30;;;0.55;;
48743;SDS011;34538;48.836;9.174;2023-04-23T14:35:10;1.83;;;0.80;;
48743;SDS011;34538;48.836;9.174;2023-04-23T14:37:37;1.10;;;0.40;;
48743;SDS011;34538;48.836;9.174;2023-04-23T14:40:08;0.77;;;0.68;;
48743;SDS011;34538;48.836;9.174;2023-04-23T14:42:38;0.98;;;0.60;;
48743;SDS011;34538;48.836;9.174;2023-04-23T14:45:05;1.98;;;0.60;;
48743;SDS011;34538;48.836;9.174;2023-04-23T14:47:33;2.53;;;0.60;;
48743;SDS011;34538;48.836;9.174;2023-04-23T14:50:00;3.22;;;0.73;;
48743;SDS011;34538;48.836;9.174;2023-04-23T14:52:26;1.20;;;0.60;;
48743;SDS011;34538;48.836;9.174;2023-04-23T14:54:54;2.55;;;0.60;;